Time;durP1;ratioP1;P1;durP2;ratioP2;P2;SDS_P1;SDS_P2;PMS_P1;PMS_P2;Temp;Humidity;BMP_temperature;BMP_pressure;BME280_temperature;BME280_humidity;BME280_pressure;Samples;Min_cycle;Max_cycle;Signal;HPM_P1;HPM_P2
2023/11/30 00:00:07;;;;;;;38.90;19.50;;;;;;;;;;5010470;28;20029;-81
2023/11/30 00:02:33;;;;;;;37.80;20.10;;;;;;;;;;5016414;28;20435;-82
2023/11/30 00:04:59;;;;;;;33.57;17.63;;;;;;;;;;5018899;28;20279;-81
2023/11/30 00:07:25;;;;;;;29.93;18.10;;;;;;;;;;5033190;28;20343;-82
2023/11/30 00:09:51;;;;;;;35.50;17.50;;;;;;;;;;5019084;28;20295;-83
2023/11/30 00:12:22;;;;;;;28.33;17.33;;;;;;;;;;5034124;28;20136;-80
2023/11/30 00:14:48;;;;;;;41.13;20.17;;;;;;;;;;5034573;28;20275;-83
2023/11/30 00:17:14;;;;;;;37.37;21.03;;;;;;;;;;5034494;28;20280;-83
2023/11/30 00:19:42;;;;;;;36.20;19.77;;;;;;;;;;5015737;28;20087;-79
2023/11/30 00:22:08;;;;;;;30.63;17.90;;;;;;;;;;5015201;28;20034;-80
2023/11/30 00:24:34;;;;;;;33.97;18.37;;;;;;;;;;5028799;28;20717;-81
2023/11/30 00:27:00;;;;;;;32.30;19.07;;;;;;;;;;5011472;28;20060;-81
2023/11/30 00:29:28;;;;;;;31.93;17.10;;;;;;;;;;5031286;28;20034;-83
2023/11/30 00:31:54;;;;;;;34.03;18.27;;;;;;;;;;5013275;28;20037;-82
2023/11/30 00:34:20;;;;;;;35.30;18.03;;;;;;;;;;5016023;28;20333;-82
2023/11/30 00:36:46;;;;;;;34.50;17.60;;;;;;;;;;5016150;28;20026;-80
2023/11/30 00:39:12;;;;;;;36.20;18.13;;;;;;;;;;5026390;28;20109;-83
2023/11/30 00:41:38;;;;;;;39.33;17.80;;;;;;;;;;5022926;28;20034;-85
2023/11/30 00:44:07;;;;;;;30.23;16.47;;;;;;;;;;5032860;28;20283;-79
2023/11/30 00:46:33;;;;;;;29.93;16.90;;;;;;;;;;5014776;28;20361;-80
2023/11/30 00:48:59;;;;;;;31.70;16.93;;;;;;;;;;5027837;28;20308;-82
2023/11/30 00:51:28;;;;;;;30.93;17.77;;;;;;;;;;5015446;28;20033;-83
2023/11/30 00:53:54;;;;;;;28.07;17.13;;;;;;;;;;5016801;28;21783;-80
2023/11/30 00:56:20;;;;;;;29.20;15.93;;;;;;;;;;5017855;28;20294;-81
2023/11/30 00:58:46;;;;;;;28.90;15.93;;;;;;;;;;5033420;28;20592;-85
2023/11/30 01:01:12;;;;;;;27.10;16.13;;;;;;;;;;5013913;28;20064;-81
2023/11/30 01:03:38;;;;;;;29.43;16.13;;;;;;;;;;5015576;28;20947;-79
2023/11/30 01:06:04;;;;;;;29.70;16.47;;;;;;;;;;5031456;28;20087;-81
2023/11/30 01:08:30;;;;;;;29.57;15.93;;;;;;;;;;5030567;28;20805;-81
2023/11/30 01:10:56;;;;;;;31.33;16.07;;;;;;;;;;5015954;28;20280;-82
2023/11/30 01:13:22;;;;;;;29.57;16.33;;;;;;;;;;5017026;28;20029;-85
2023/11/30 01:15:48;;;;;;;29.73;16.73;;;;;;;;;;5018066;28;20612;-81
2023/11/30 01:18:14;;;;;;;26.77;15.60;;;;;;;;;;5015652;28;20037;-85
2023/11/30 01:20:40;;;;;;;29.90;15.83;;;;;;;;;;5015270;28;20814;-85
2023/11/30 01:23:06;;;;;;;29.17;16.47;;;;;;;;;;5015869;28;20339;-80
2023/11/30 01:25:32;;;;;;;31.23;17.23;;;;;;;;;;5017437;28;20025;-82
2023/11/30 01:27:58;;;;;;;28.73;15.67;;;;;;;;;;5021955;28;20052;-85
2023/11/30 01:30:26;;;;;;;31.63;17.50;;;;;;;;;;5018073;28;20515;-82
2023/11/30 01:32:52;;;;;;;28.97;16.80;;;;;;;;;;5017554;28;20033;-83
2023/11/30 01:35:18;;;;;;;26.40;14.67;;;;;;;;;;5036520;28;20299;-82
2023/11/30 01:37:44;;;;;;;29.67;16.03;;;;;;;;;;5036975;28;20025;-84
2023/11/30 01:40:10;;;;;;;28.03;15.63;;;;;;;;;;5019202;28;20088;-84
2023/11/30 01:42:37;;;;;;;27.20;16.87;;;;;;;;;;5019408;28;20033;-82
2023/11/30 01:45:04;;;;;;;26.07;16.27;;;;;;;;;;5017974;28;20291;-81
2023/11/30 01:47:30;;;;;;;27.33;15.60;;;;;;;;;;5020472;28;20287;-84
2023/11/30 01:49:57;;;;;;;32.30;15.70;;;;;;;;;;5036953;28;20276;-82
2023/11/30 01:52:23;;;;;;;25.43;14.57;;;;;;;;;;5037332;28;20291;-80
2023/11/30 01:54:49;;;;;;;26.43;15.30;;;;;;;;;;5020744;28;20279;-83
2023/11/30 01:57:15;;;;;;;22.67;13.73;;;;;;;;;;5018392;28;20312;-81
2023/11/30 01:59:42;;;;;;;23.73;14.07;;;;;;;;;;5019089;28;20280;-83
2023/11/30 02:02:08;;;;;;;28.03;14.60;;;;;;;;;;5018543;28;20279;-82
2023/11/30 02:04:34;;;;;;;24.83;13.47;;;;;;;;;;5019546;28;20302;-81
2023/11/30 02:07:00;;;;;;;23.43;15.17;;;;;;;;;;5036613;28;20280;-80
2023/11/30 02:09:26;;;;;;;23.50;14.27;;;;;;;;;;5018415;28;20284;-81
2023/11/30 02:11:52;;;;;;;23.87;13.53;;;;;;;;;;5019771;28;20044;-84
2023/11/30 02:14:19;;;;;;;27.50;14.00;;;;;;;;;;5016673;28;20737;-81
2023/11/30 02:16:45;;;;;;;23.50;13.23;;;;;;;;;;5017492;28;20474;-84
2023/11/30 02:19:11;;;;;;;24.17;13.50;;;;;;;;;;5019764;28;20319;-83
2023/11/30 02:21:37;;;;;;;25.93;14.20;;;;;;;;;;5036281;28;20029;-79
2023/11/30 02:24:03;;;;;;;25.00;14.30;;;;;;;;;;5039102;28;20060;-81
2023/11/30 02:26:29;;;;;;;24.53;15.10;;;;;;;;;;5034822;28;20089;-80
2023/11/30 02:28:55;;;;;;;27.80;14.13;;;;;;;;;;5017905;28;20299;-84
2023/11/30 02:31:21;;;;;;;25.17;13.57;;;;;;;;;;5019695;28;20551;-82
2023/11/30 02:33:46;;;;;;;23.33;14.17;;;;;;;;;;5035436;28;20029;-81
2023/11/30 02:36:13;;;;;;;25.50;13.17;;;;;;;;;;5016841;28;20087;-80
2023/11/30 02:38:39;;;;;;;27.67;14.40;;;;;;;;;;5018833;28;20044;-80
2023/11/30 02:41:05;;;;;;;28.10;14.67;;;;;;;;;;5035919;28;20272;-80
2023/11/30 02:43:37;;;;;;;25.67;14.33;;;;;;;;;;5016061;28;20060;-80
2023/11/30 02:46:03;;;;;;;25.58;14.75;;;;;;;;;;5012309;28;20307;-80
2023/11/30 02:48:29;;;;;;;23.03;13.87;;;;;;;;;;5018170;28;20048;-80
2023/11/30 02:50:57;;;;;;;28.03;14.73;;;;;;;;;;5018872;28;20304;-80
2023/11/30 02:53:25;;;;;;;23.77;14.60;;;;;;;;;;5018346;28;20025;-82
2023/11/30 02:55:51;;;;;;;25.10;15.03;;;;;;;;;;5017283;28;20747;-78
2023/11/30 02:58:17;;;;;;;21.37;13.73;;;;;;;;;;5035977;28;20302;-81
2023/11/30 03:00:43;;;;;;;26.80;14.27;;;;;;;;;;5017964;28;20564;-81
2023/11/30 03:03:09;;;;;;;22.83;13.67;;;;;;;;;;5017673;28;20053;-81
2023/11/30 03:05:35;;;;;;;24.77;14.03;;;;;;;;;;5019101;28;20446;-80
2023/11/30 03:08:01;;;;;;;26.60;15.07;;;;;;;;;;5016788;28;20040;-82
2023/11/30 03:10:30;;;;;;;25.03;14.03;;;;;;;;;;5017888;28;20326;-80
2023/11/30 03:12:58;;;;;;;22.87;14.10;;;;;;;;;;5030447;28;20033;-79
2023/11/30 03:15:24;;;;;;;28.03;14.53;;;;;;;;;;5017471;28;20284;-80
2023/11/30 03:17:50;;;;;;;28.33;14.67;;;;;;;;;;5013296;28;20466;-81
2023/11/30 03:20:16;;;;;;;27.97;14.27;;;;;;;;;;5017511;28;20025;-79
2023/11/30 03:22:42;;;;;;;22.87;14.10;;;;;;;;;;5026286;28;20276;-83
2023/11/30 03:25:08;;;;;;;22.73;12.60;;;;;;;;;;5029804;28;20352;-79
2023/11/30 03:27:34;;;;;;;24.63;14.67;;;;;;;;;;5017095;28;20296;-81
2023/11/30 03:30:01;;;;;;;22.30;13.70;;;;;;;;;;5017099;28;20030;-79
2023/11/30 03:32:27;;;;;;;21.30;13.30;;;;;;;;;;5031831;28;20022;-81
2023/11/30 03:34:53;;;;;;;23.53;13.50;;;;;;;;;;5032813;28;20038;-79
2023/11/30 03:37:19;;;;;;;24.90;13.97;;;;;;;;;;5016745;28;20090;-81
2023/11/30 03:39:45;;;;;;;22.50;14.20;;;;;;;;;;5016897;28;20079;-81
2023/11/30 03:42:11;;;;;;;24.13;14.37;;;;;;;;;;5016554;28;20103;-81
2023/11/30 03:44:37;;;;;;;24.43;14.43;;;;;;;;;;5017288;28;20450;-81
2023/11/30 03:47:03;;;;;;;24.70;13.40;;;;;;;;;;5034477;28;20029;-81
2023/11/30 03:49:29;;;;;;;20.77;13.47;;;;;;;;;;5015629;28;20048;-79
2023/11/30 03:51:55;;;;;;;21.97;12.53;;;;;;;;;;5016225;28;20030;-81
2023/11/30 03:54:21;;;;;;;23.00;12.40;;;;;;;;;;5028447;28;20112;-80
2023/11/30 03:56:47;;;;;;;21.00;12.50;;;;;;;;;;5016748;28;20030;-80
2023/11/30 03:59:13;;;;;;;22.20;13.77;;;;;;;;;;5029298;28;20025;-79
2023/11/30 04:01:39;;;;;;;22.30;13.00;;;;;;;;;;5016624;28;20167;-80
2023/11/30 04:04:05;;;;;;;22.70;12.97;;;;;;;;;;5033297;28;20037;-81
2023/11/30 04:06:31;;;;;;;25.87;14.20;;;;;;;;;;5015450;28;20053;-81
2023/11/30 04:08:59;;;;;;;23.13;13.40;;;;;;;;;;5024171;28;20048;-80
2023/11/30 04:11:25;;;;;;;20.87;12.60;;;;;;;;;;5032088;28;20028;-80
2023/11/30 04:13:51;;;;;;;22.07;12.83;;;;;;;;;;5027743;28;20030;-80
2023/11/30 04:16:17;;;;;;;23.00;13.47;;;;;;;;;;5014994;28;20561;-80
2023/11/30 04:18:43;;;;;;;25.90;15.03;;;;;;;;;;5011612;28;20025;-80
2023/11/30 04:21:10;;;;;;;23.17;13.87;;;;;;;;;;5014834;28;20839;-80
2023/11/30 04:23:35;;;;;;;26.43;15.33;;;;;;;;;;5027854;28;20033;-80
2023/11/30 04:26:02;;;;;;;29.17;16.07;;;;;;;;;;5015128;28;20276;-81
2023/11/30 04:28:28;;;;;;;29.00;16.17;;;;;;;;;;5026783;28;20033;-81
2023/11/30 04:30:54;;;;;;;28.60;16.03;;;;;;;;;;5015921;28;20349;-80
2023/11/30 04:33:20;;;;;;;28.43;16.03;;;;;;;;;;5030175;28;20033;-81
2023/11/30 04:35:46;;;;;;;30.37;15.53;;;;;;;;;;5011674;28;20335;-80
2023/11/30 04:38:12;;;;;;;28.57;16.83;;;;;;;;;;5024441;28;20293;-82
2023/11/30 04:40:40;;;;;;;28.80;16.33;;;;;;;;;;5014758;28;20517;-79
2023/11/30 04:43:06;;;;;;;27.87;15.67;;;;;;;;;;5034056;28;20037;-81
2023/11/30 04:45:32;;;;;;;31.77;16.90;;;;;;;;;;5016439;28;20030;-80
2023/11/30 04:47:58;;;;;;;28.20;16.50;;;;;;;;;;5012383;28;20030;-82
2023/11/30 04:50:24;;;;;;;32.40;17.40;;;;;;;;;;5006720;28;20032;-80
2023/11/30 04:52:51;;;;;;;32.17;17.73;;;;;;;;;;5011577;28;20128;-81
2023/11/30 04:55:17;;;;;;;33.50;18.03;;;;;;;;;;5010027;28;20029;-81
2023/11/30 04:57:43;;;;;;;33.63;17.80;;;;;;;;;;5026985;28;20033;-82
2023/11/30 05:00:09;;;;;;;37.67;17.27;;;;;;;;;;5009501;28;20044;-81
2023/11/30 05:02:36;;;;;;;34.67;17.70;;;;;;;;;;5014116;28;20458;-81
2023/11/30 05:05:02;;;;;;;32.10;17.03;;;;;;;;;;5017243;28;20350;-80
2023/11/30 05:07:28;;;;;;;34.37;17.73;;;;;;;;;;5013866;28;20736;-79
2023/11/30 05:09:54;;;;;;;30.83;17.07;;;;;;;;;;5011957;28;20125;-79
2023/11/30 05:12:22;;;;;;;32.27;17.57;;;;;;;;;;5016221;28;20509;-79
2023/11/30 05:14:48;;;;;;;31.37;17.13;;;;;;;;;;5034204;28;20108;-81
2023/11/30 05:17:14;;;;;;;33.27;19.03;;;;;;;;;;5017581;28;20439;-81
2023/11/30 05:19:40;;;;;;;31.97;17.60;;;;;;;;;;5034243;28;20037;-81
2023/11/30 05:22:06;;;;;;;32.17;17.80;;;;;;;;;;5012038;28;20026;-80
2023/11/30 05:24:32;;;;;;;32.80;16.13;;;;;;;;;;5032172;28;20110;-81
2023/11/30 05:26:58;;;;;;;32.80;17.60;;;;;;;;;;5033027;28;20076;-80
2023/11/30 05:29:24;;;;;;;30.47;17.27;;;;;;;;;;5017548;28;20562;-81
2023/11/30 05:31:50;;;;;;;32.27;17.67;;;;;;;;;;5004944;28;20057;-82
2023/11/30 05:34:16;;;;;;;32.00;17.00;;;;;;;;;;5017471;28;20040;-81
2023/11/30 05:36:42;;;;;;;34.63;17.53;;;;;;;;;;5035170;28;20369;-81
2023/11/30 05:39:08;;;;;;;31.33;16.33;;;;;;;;;;5014089;28;20032;-82
2023/11/30 05:41:34;;;;;;;31.50;17.80;;;;;;;;;;5004661;28;20034;-80
2023/11/30 05:44:01;;;;;;;41.27;18.27;;;;;;;;;;5023849;28;20502;-81
2023/11/30 05:46:27;;;;;;;37.23;17.70;;;;;;;;;;5017559;28;20394;-81
2023/11/30 05:48:54;;;;;;;37.23;19.93;;;;;;;;;;5016978;28;20030;-81
2023/11/30 05:51:21;;;;;;;33.00;18.00;;;;;;;;;;5019369;28;20588;-82
2023/11/30 05:53:49;;;;;;;36.63;17.53;;;;;;;;;;5016236;28;20040;-82
2023/11/30 05:56:15;;;;;;;35.40;17.93;;;;;;;;;;5017637;28;20026;-82
2023/11/30 05:58:43;;;;;;;35.17;17.77;;;;;;;;;;5031600;28;20048;-82
2023/11/30 06:01:09;;;;;;;35.97;18.63;;;;;;;;;;5027927;28;20033;-80
2023/11/30 06:03:35;;;;;;;38.13;18.43;;;;;;;;;;5013564;28;20029;-81
2023/11/30 06:06:01;;;;;;;33.47;18.30;;;;;;;;;;5012143;28;20098;-81
2023/11/30 06:08:27;;;;;;;35.33;18.23;;;;;;;;;;5017051;28;20033;-80
2023/11/30 06:10:53;;;;;;;36.97;18.93;;;;;;;;;;5033231;28;20029;-80
2023/11/30 06:13:21;;;;;;;38.30;18.80;;;;;;;;;;5029304;28;20139;-80
2023/11/30 06:15:47;;;;;;;33.97;17.93;;;;;;;;;;5025619;28;20034;-81
2023/11/30 06:18:13;;;;;;;36.83;18.43;;;;;;;;;;5014681;28;20115;-79
2023/11/30 06:20:39;;;;;;;34.27;18.03;;;;;;;;;;5017501;28;20338;-80
2023/11/30 06:23:07;;;;;;;35.30;17.30;;;;;;;;;;5018028;28;20109;-80
2023/11/30 06:25:33;;;;;;;30.97;16.80;;;;;;;;;;5025571;28;20118;-78
2023/11/30 06:27:59;;;;;;;33.43;16.53;;;;;;;;;;5018654;28;20063;-79
2023/11/30 06:30:25;;;;;;;35.30;18.13;;;;;;;;;;5030869;28;20041;-80
2023/11/30 06:32:51;;;;;;;36.00;18.40;;;;;;;;;;5029097;28;20156;-79
2023/11/30 06:35:20;;;;;;;35.73;18.00;;;;;;;;;;5033908;28;20499;-79
2023/11/30 06:37:46;;;;;;;37.60;17.23;;;;;;;;;;5025921;28;20041;-79
2023/11/30 06:40:12;;;;;;;37.97;18.17;;;;;;;;;;5025701;28;20033;-80
2023/11/30 06:42:38;;;;;;;35.97;18.10;;;;;;;;;;5029625;28;20075;-81
2023/11/30 06:45:05;;;;;;;41.67;19.27;;;;;;;;;;5031137;28;20041;-79
2023/11/30 06:47:32;;;;;;;35.63;16.53;;;;;;;;;;5030452;28;20053;-79
2023/11/30 06:49:58;;;;;;;30.77;15.70;;;;;;;;;;5023319;28;20037;-80
2023/11/30 06:52:26;;;;;;;35.53;17.13;;;;;;;;;;5014348;28;20033;-81
2023/11/30 06:54:53;;;;;;;37.57;17.73;;;;;;;;;;5017433;28;20033;-81
2023/11/30 06:57:19;;;;;;;34.43;17.27;;;;;;;;;;5016470;28;20029;-80
2023/11/30 06:59:45;;;;;;;38.83;17.90;;;;;;;;;;5015973;28;20057;-80
2023/11/30 07:02:11;;;;;;;37.27;16.70;;;;;;;;;;5033662;28;20037;-79
2023/11/30 07:04:37;;;;;;;38.27;19.33;;;;;;;;;;5033713;28;20091;-82
2023/11/30 07:07:03;;;;;;;37.93;18.30;;;;;;;;;;5015904;28;20033;-79
2023/11/30 07:09:29;;;;;;;42.30;18.73;;;;;;;;;;5032036;28;20033;-79
2023/11/30 07:11:55;;;;;;;34.97;18.10;;;;;;;;;;5015324;28;20129;-80
2023/11/30 07:14:21;;;;;;;46.57;19.43;;;;;;;;;;5017506;28;20466;-80
2023/11/30 07:16:47;;;;;;;38.20;18.53;;;;;;;;;;5016951;28;20029;-80
2023/11/30 07:19:14;;;;;;;38.30;17.37;;;;;;;;;;5018291;28;21741;-81
2023/11/30 07:21:40;;;;;;;39.47;19.43;;;;;;;;;;5017102;28;20052;-82
2023/11/30 07:24:06;;;;;;;39.27;18.73;;;;;;;;;;5016537;28;20098;-82
2023/11/30 07:26:32;;;;;;;40.83;18.40;;;;;;;;;;5016169;28;20414;-81
2023/11/30 07:28:58;;;;;;;40.40;18.70;;;;;;;;;;5028863;28;20028;-80
2023/11/30 07:31:24;;;;;;;33.17;16.73;;;;;;;;;;5016982;28;20128;-80
2023/11/30 07:33:50;;;;;;;35.33;17.60;;;;;;;;;;5016484;28;20124;-80
2023/11/30 07:36:19;;;;;;;34.77;17.70;;;;;;;;;;5031564;28;20034;-80
2023/11/30 07:38:45;;;;;;;35.70;17.10;;;;;;;;;;5035511;28;20084;-81
2023/11/30 07:41:11;;;;;;;33.97;17.13;;;;;;;;;;5018174;28;20520;-80
2023/11/30 07:43:37;;;;;;;34.50;17.90;;;;;;;;;;5017430;28;20052;-82
2023/11/30 07:46:03;;;;;;;32.17;16.23;;;;;;;;;;5015260;28;20033;-81
2023/11/30 07:48:29;;;;;;;34.67;16.97;;;;;;;;;;5015630;28;20029;-79
2023/11/30 07:50:55;;;;;;;41.60;18.77;;;;;;;;;;5018265;28;20025;-81
2023/11/30 07:53:23;;;;;;;34.23;17.43;;;;;;;;;;5016292;28;20079;-81
2023/11/30 07:55:54;;;;;;;34.77;16.33;;;;;;;;;;5016307;28;20125;-80
2023/11/30 07:58:21;;;;;;;34.33;17.53;;;;;;;;;;5033290;28;20468;-81
2023/11/30 08:00:47;;;;;;;32.87;16.60;;;;;;;;;;5016989;28;20096;-81
2023/11/30 08:03:13;;;;;;;33.23;16.03;;;;;;;;;;5015513;28;20125;-79
2023/11/30 08:05:39;;;;;;;32.57;16.97;;;;;;;;;;5033930;28;20059;-80
2023/11/30 08:08:05;;;;;;;38.13;18.70;;;;;;;;;;5034571;28;20033;-80
2023/11/30 08:10:33;;;;;;;43.93;21.80;;;;;;;;;;5015443;28;20033;-79
2023/11/30 08:12:59;;;;;;;56.07;25.60;;;;;;;;;;5034099;28;20091;-80
2023/11/30 08:15:25;;;;;;;44.50;21.17;;;;;;;;;;5016475;28;20029;-79
2023/11/30 08:17:51;;;;;;;41.27;21.03;;;;;;;;;;5014888;28;20025;-81
2023/11/30 08:20:20;;;;;;;34.03;17.70;;;;;;;;;;5033703;28;20036;-78
2023/11/30 08:22:46;;;;;;;36.30;18.30;;;;;;;;;;5014182;28;20036;-79
2023/11/30 08:25:12;;;;;;;35.10;17.60;;;;;;;;;;5016848;28;20025;-80
2023/11/30 08:27:38;;;;;;;35.60;18.20;;;;;;;;;;5016166;28;20365;-80
2023/11/30 08:30:05;;;;;;;36.20;18.20;;;;;;;;;;5014303;28;20581;-79
2023/11/30 08:32:31;;;;;;;33.07;18.30;;;;;;;;;;5016165;28;20981;-80
2023/11/30 08:34:57;;;;;;;34.90;19.13;;;;;;;;;;5016086;28;20049;-79
2023/11/30 08:37:23;;;;;;;35.03;19.83;;;;;;;;;;5016181;28;20081;-81
2023/11/30 08:39:49;;;;;;;40.90;21.73;;;;;;;;;;5015249;28;20029;-79
2023/11/30 08:42:15;;;;;;;40.60;21.63;;;;;;;;;;5014250;28;20033;-79
2023/11/30 08:44:41;;;;;;;35.27;18.30;;;;;;;;;;5015525;28;20132;-79
2023/11/30 08:47:07;;;;;;;28.67;16.07;;;;;;;;;;5024307;28;20061;-79
2023/11/30 08:49:33;;;;;;;25.07;13.40;;;;;;;;;;5030049;28;20025;-80
2023/11/30 08:51:59;;;;;;;30.97;17.13;;;;;;;;;;5015002;28;20040;-79
2023/11/30 08:54:25;;;;;;;31.57;17.07;;;;;;;;;;5015002;28;20124;-80
2023/11/30 08:56:52;;;;;;;31.17;15.13;;;;;;;;;;5031063;28;20287;-81
2023/11/30 08:59:21;;;;;;;32.53;19.37;;;;;;;;;;5015769;28;20033;-81
2023/11/30 09:01:48;;;;;;;31.63;17.20;;;;;;;;;;5014870;28;21720;-80
2023/11/30 09:04:14;;;;;;;34.57;15.97;;;;;;;;;;5012570;28;20049;-80
2023/11/30 09:06:40;;;;;;;32.83;16.57;;;;;;;;;;5014480;28;20033;-79
2023/11/30 09:09:06;;;;;;;28.17;16.53;;;;;;;;;;5029143;28;20034;-79
2023/11/30 09:11:34;;;;;;;26.87;14.87;;;;;;;;;;5028185;28;20033;-81
2023/11/30 09:14:00;;;;;;;23.37;12.77;;;;;;;;;;5024916;28;20072;-79
2023/11/30 09:16:26;;;;;;;26.30;13.60;;;;;;;;;;5013433;28;20049;-80
2023/11/30 09:18:55;;;;;;;27.53;13.90;;;;;;;;;;5014106;28;20369;-79
2023/11/30 09:21:21;;;;;;;24.53;12.73;;;;;;;;;;5026128;28;20924;-79
2023/11/30 09:23:48;;;;;;;22.50;13.07;;;;;;;;;;5013719;28;20036;-80
2023/11/30 09:26:16;;;;;;;26.17;13.47;;;;;;;;;;5015181;28;20025;-80
2023/11/30 09:28:42;;;;;;;26.47;12.97;;;;;;;;;;5025141;28;20057;-79
2023/11/30 09:31:08;;;;;;;22.63;13.07;;;;;;;;;;5013708;28;20040;-79
2023/11/30 09:33:34;;;;;;;29.97;14.57;;;;;;;;;;5013107;28;20033;-79
2023/11/30 09:36:03;;;;;;;22.60;12.37;;;;;;;;;;5026343;28;21765;-80
2023/11/30 09:38:29;;;;;;;27.10;14.47;;;;;;;;;;5015351;28;20110;-79
2023/11/30 09:40:58;;;;;;;34.47;16.83;;;;;;;;;;5015080;28;20050;-79
2023/11/30 09:43:24;;;;;;;29.33;16.43;;;;;;;;;;5024233;28;20044;-80
2023/11/30 09:45:51;;;;;;;32.90;14.93;;;;;;;;;;5032117;28;20029;-79
2023/11/30 09:48:17;;;;;;;26.80;15.30;;;;;;;;;;5027505;28;20137;-79
2023/11/30 09:50:43;;;;;;;25.77;15.37;;;;;;;;;;5013720;28;20477;-79
2023/11/30 09:53:10;;;;;;;25.20;14.23;;;;;;;;;;5016028;28;20037;-79
2023/11/30 09:55:36;;;;;;;24.37;13.73;;;;;;;;;;5020319;28;20025;-79
2023/11/30 09:58:03;;;;;;;28.30;15.67;;;;;;;;;;5014688;28;20037;-80
2023/11/30 10:00:29;;;;;;;28.33;16.93;;;;;;;;;;5035818;28;20028;-79
2023/11/30 10:02:59;;;;;;;30.90;17.10;;;;;;;;;;5018424;28;20021;-79
2023/11/30 10:05:28;;;;;;;29.87;16.40;;;;;;;;;;5015829;28;21716;-79
2023/11/30 10:07:54;;;;;;;27.67;15.13;;;;;;;;;;5030433;28;20030;-80
2023/11/30 10:10:20;;;;;;;34.30;17.10;;;;;;;;;;5015368;28;20438;-79
2023/11/30 10:12:46;;;;;;;30.13;15.23;;;;;;;;;;5020243;28;20025;-79
2023/11/30 10:15:12;;;;;;;26.87;15.63;;;;;;;;;;5034597;28;20449;-79
2023/11/30 10:17:38;;;;;;;22.73;12.33;;;;;;;;;;5029946;28;20653;-79
2023/11/30 10:20:05;;;;;;;22.13;12.37;;;;;;;;;;5034380;28;20025;-79
2023/11/30 10:22:32;;;;;;;20.93;13.30;;;;;;;;;;5018137;28;20042;-81
2023/11/30 10:24:58;;;;;;;22.40;11.80;;;;;;;;;;5018573;28;20438;-79
2023/11/30 10:27:26;;;;;;;21.57;12.33;;;;;;;;;;5036001;28;20043;-79
2023/11/30 10:29:54;;;;;;;21.23;12.47;;;;;;;;;;5028895;28;20037;-79
2023/11/30 10:32:22;;;;;;;28.80;15.10;;;;;;;;;;5018717;28;20117;-79
2023/11/30 10:34:49;;;;;;;27.00;16.87;;;;;;;;;;5027600;28;20053;-80
2023/11/30 10:37:23;;;;;;;23.07;12.67;;;;;;;;;;5026764;28;20044;-79
2023/11/30 10:40:09;;;;;;;20.20;12.50;;;;;;;;;;5028959;28;20057;-79
2023/11/30 10:42:36;;;;;;;23.77;12.30;;;;;;;;;;5019014;28;20040;-79
2023/11/30 10:45:04;;;;;;;23.67;13.20;;;;;;;;;;5020309;28;20037;-79
2023/11/30 10:47:32;;;;;;;20.80;11.27;;;;;;;;;;5007221;28;20061;-79
2023/11/30 10:49:59;;;;;;;20.63;11.57;;;;;;;;;;5036549;28;20029;-79
2023/11/30 10:52:27;;;;;;;15.87;10.03;;;;;;;;;;5014767;28;20095;-79
2023/11/30 10:55:21;;;;;;;18.70;11.10;;;;;;;;;;5013418;28;20083;-78
2023/11/30 10:57:47;;;;;;;19.37;10.17;;;;;;;;;;5017571;28;20183;-78
2023/11/30 11:00:15;;;;;;;19.17;10.33;;;;;;;;;;5020213;28;20037;-78
2023/11/30 11:02:44;;;;;;;27.87;15.73;;;;;;;;;;5019920;28;20033;-79
2023/11/30 11:05:14;;;;;;;19.40;11.77;;;;;;;;;;5019712;28;20032;-79
2023/11/30 11:07:46;;;;;;;24.03;12.43;;;;;;;;;;5006736;28;20030;-78
2023/11/30 11:10:22;;;;;;;16.50;10.05;;;;;;;;;;5023444;28;20373;-79
2023/11/30 11:12:49;;;;;;;18.33;11.47;;;;;;;;;;5006931;28;20180;-78
2023/11/30 11:15:19;;;;;;;18.27;9.60;;;;;;;;;;5006205;28;20040;-79
2023/11/30 11:17:49;;;;;;;17.47;10.60;;;;;;;;;;5024074;28;20112;-79
2023/11/30 11:20:35;;;;;;;16.20;9.47;;;;;;;;;;5036077;28;20076;-78
2023/11/30 11:23:04;;;;;;;16.23;9.87;;;;;;;;;;5018966;28;20131;-79
2023/11/30 11:25:41;;;;;;;14.87;8.90;;;;;;;;;;5013717;28;20048;-79
2023/11/30 11:28:07;;;;;;;12.20;7.20;;;;;;;;;;5017741;28;20028;-78
2023/11/30 11:30:38;;;;;;;19.20;9.83;;;;;;;;;;5019575;28;20029;-79
2023/11/30 11:33:05;;;;;;;15.10;9.80;;;;;;;;;;5020007;28;20021;-78
2023/11/30 11:35:31;;;;;;;13.00;8.07;;;;;;;;;;5015731;28;20121;-79
2023/11/30 11:37:57;;;;;;;14.30;8.83;;;;;;;;;;5032920;28;20083;-79
2023/11/30 11:40:26;;;;;;;15.40;8.77;;;;;;;;;;5016066;28;20022;-78
2023/11/30 11:42:51;;;;;;;12.97;7.77;;;;;;;;;;5013204;28;20057;-78
2023/11/30 11:45:17;;;;;;;13.50;9.00;;;;;;;;;;5010077;28;20418;-78
2023/11/30 11:47:44;;;;;;;13.87;9.07;;;;;;;;;;5019018;28;20029;-79
2023/11/30 11:50:12;;;;;;;11.93;7.77;;;;;;;;;;5035499;28;20104;-78
2023/11/30 11:52:38;;;;;;;13.90;8.40;;;;;;;;;;5015721;28;20037;-78
2023/11/30 11:55:12;;;;;;;12.20;7.53;;;;;;;;;;5018796;28;20056;-79
2023/11/30 11:57:39;;;;;;;13.97;8.50;;;;;;;;;;5013200;28;20075;-78
2023/11/30 12:00:16;;;;;;;16.50;8.63;;;;;;;;;;5007022;28;20026;-78
2023/11/30 12:02:43;;;;;;;13.00;7.97;;;;;;;;;;5011303;28;20042;-78
2023/11/30 12:05:16;;;;;;;11.93;8.00;;;;;;;;;;5019045;28;20045;-78
2023/11/30 12:08:03;;;;;;;12.57;8.33;;;;;;;;;;5019961;28;20172;-78
2023/11/30 12:10:32;;;;;;;13.30;8.37;;;;;;;;;;5015941;28;20126;-78
2023/11/30 12:13:01;;;;;;;12.30;8.50;;;;;;;;;;5010884;28;20430;-78
2023/11/30 12:15:28;;;;;;;20.50;11.60;;;;;;;;;;5028471;28;20033;-78
2023/11/30 12:17:57;;;;;;;23.60;13.30;;;;;;;;;;5018246;28;20025;-78
2023/11/30 12:20:23;;;;;;;24.50;14.47;;;;;;;;;;5027763;28;20961;-79
2023/11/30 12:22:52;;;;;;;15.77;9.67;;;;;;;;;;5014519;28;20025;-78
2023/11/30 12:25:18;;;;;;;16.30;9.70;;;;;;;;;;5016171;28;20045;-78
2023/11/30 12:27:44;;;;;;;16.20;9.73;;;;;;;;;;5015484;28;20118;-79
2023/11/30 12:30:10;;;;;;;13.67;9.23;;;;;;;;;;5018107;28;20029;-78
2023/11/30 12:32:37;;;;;;;16.77;9.03;;;;;;;;;;5011084;28;20044;-78
2023/11/30 12:35:04;;;;;;;16.10;10.13;;;;;;;;;;5014717;28;20033;-79
2023/11/30 12:37:30;;;;;;;14.17;8.30;;;;;;;;;;5028782;28;20040;-78
2023/11/30 12:39:56;;;;;;;15.70;8.80;;;;;;;;;;5025881;28;20033;-79
2023/11/30 12:42:23;;;;;;;14.07;9.40;;;;;;;;;;5016373;28;20071;-78
2023/11/30 12:44:52;;;;;;;15.93;10.43;;;;;;;;;;5011029;28;20113;-79
2023/11/30 12:47:20;;;;;;;18.37;10.87;;;;;;;;;;5016276;28;20030;-78
2023/11/30 12:49:49;;;;;;;13.67;9.43;;;;;;;;;;5033011;28;20060;-79
2023/11/30 12:52:15;;;;;;;15.53;10.23;;;;;;;;;;5015857;28;20044;-78
2023/11/30 12:54:41;;;;;;;15.10;9.97;;;;;;;;;;5015907;28;20037;-78
2023/11/30 12:57:07;;;;;;;14.53;9.43;;;;;;;;;;5015721;28;20041;-79
2023/11/30 12:59:33;;;;;;;18.23;11.73;;;;;;;;;;5016170;28;20021;-79
2023/11/30 13:02:00;;;;;;;14.80;9.53;;;;;;;;;;5015822;28;20036;-78
2023/11/30 13:04:26;;;;;;;32.17;13.10;;;;;;;;;;5032559;28;20067;-78
2023/11/30 13:07:00;;;;;;;16.10;10.30;;;;;;;;;;5015332;28;20437;-77
2023/11/30 13:09:29;;;;;;;13.57;9.40;;;;;;;;;;5031096;28;20057;-78
2023/11/30 13:11:57;;;;;;;15.97;9.33;;;;;;;;;;5015123;28;20041;-78
2023/11/30 13:14:23;;;;;;;17.87;11.00;;;;;;;;;;5014979;28;20025;-78
2023/11/30 13:16:50;;;;;;;18.00;9.73;;;;;;;;;;5015618;28;20454;-78
2023/11/30 13:19:16;;;;;;;14.40;9.40;;;;;;;;;;5030396;28;21805;-78
2023/11/30 13:21:42;;;;;;;15.37;9.00;;;;;;;;;;5015334;28;20090;-78
2023/11/30 13:24:08;;;;;;;13.13;8.93;;;;;;;;;;5015665;28;20112;-78
2023/11/30 13:26:34;;;;;;;42.20;20.87;;;;;;;;;;5014959;28;20370;-78
2023/11/30 13:29:00;;;;;;;21.40;12.27;;;;;;;;;;5015563;28;20124;-78
2023/11/30 13:31:26;;;;;;;38.23;20.37;;;;;;;;;;5013307;28;20061;-78
2023/11/30 13:33:52;;;;;;;31.73;18.23;;;;;;;;;;5015077;28;20033;-78
2023/11/30 13:36:18;;;;;;;23.57;13.50;;;;;;;;;;5015425;28;20040;-78
2023/11/30 13:38:44;;;;;;;18.30;11.73;;;;;;;;;;5014981;28;20113;-79
2023/11/30 13:41:10;;;;;;;16.73;9.87;;;;;;;;;;5013622;28;20095;-78
2023/11/30 13:43:38;;;;;;;16.07;10.63;;;;;;;;;;5015213;28;20026;-78
2023/11/30 13:46:05;;;;;;;15.83;10.33;;;;;;;;;;5014624;28;20033;-78
2023/11/30 13:48:31;;;;;;;15.47;9.43;;;;;;;;;;5013554;28;20040;-79
2023/11/30 13:50:57;;;;;;;16.87;10.57;;;;;;;;;;5013895;28;20037;-78
2023/11/30 13:53:26;;;;;;;17.40;11.07;;;;;;;;;;5014950;28;20057;-78
2023/11/30 13:55:52;;;;;;;17.80;11.10;;;;;;;;;;5014344;28;20025;-78
2023/11/30 13:58:19;;;;;;;16.00;10.27;;;;;;;;;;5014201;28;20997;-78
2023/11/30 14:00:45;;;;;;;17.93;10.90;;;;;;;;;;5013651;28;20784;-78
2023/11/30 14:03:12;;;;;;;16.90;9.77;;;;;;;;;;5014903;28;20116;-78
2023/11/30 14:05:39;;;;;;;13.00;9.03;;;;;;;;;;5014907;28;20025;-78
2023/11/30 14:08:05;;;;;;;15.90;9.57;;;;;;;;;;5012340;28;20033;-79
2023/11/30 14:10:31;;;;;;;21.63;11.33;;;;;;;;;;5014976;28;20072;-79
2023/11/30 14:12:57;;;;;;;19.13;9.87;;;;;;;;;;5014982;28;20022;-79
2023/11/30 14:15:23;;;;;;;17.13;9.40;;;;;;;;;;5014965;28;20025;-77